createdAt,value
2023-01-11T00:02:13.559Z,36.2
2023-01-11T00:07:14.068Z,36.1
2023-01-11T00:12:14.563Z,36.1
2023-01-11T00:17:15.047Z,36.1
2023-01-11T00:22:15.536Z,36
2023-01-11T00:27:16.004Z,35.9
2023-01-11T00:32:16.305Z,35.9
2023-01-11T00:37:16.819Z,35.9
2023-01-11T00:42:17.067Z,35.8
2023-01-11T00:47:17.310Z,35.7
2023-01-11T00:52:17.825Z,35.7
2023-01-11T00:57:18.289Z,35.6
2023-01-11T01:02:18.573Z,35.6
2023-01-11T01:07:19.071Z,35.6
2023-01-11T01:12:19.596Z,35.5
2023-01-11T01:17:19.836Z,35.4
2023-01-11T01:22:20.301Z,35.4
2023-01-11T01:27:20.759Z,35.4
2023-01-11T01:32:21.220Z,35.3
2023-01-11T01:37:21.455Z,35.3
2023-01-11T01:42:21.893Z,35.2
2023-01-11T01:47:22.340Z,35.2
2023-01-11T01:52:22.825Z,35.2
2023-01-11T01:57:23.334Z,35.1
2023-01-11T02:02:23.794Z,35.1
2023-01-11T02:07:24.263Z,35
2023-01-11T02:12:24.841Z,35
2023-01-11T02:17:25.076Z,34.9
2023-01-11T02:22:25.509Z,34.9
2023-01-11T02:27:25.951Z,34.9
2023-01-11T02:32:26.427Z,34.8
2023-01-11T02:37:26.636Z,34.8
2023-01-11T02:42:27.075Z,34.7
2023-01-11T02:47:27.498Z,34.7
2023-01-11T02:52:27.923Z,34.7
2023-01-11T02:57:28.342Z,34.6
2023-01-11T03:02:28.825Z,34.6
2023-01-11T03:07:29.014Z,34.6
2023-01-11T03:12:29.497Z,34.6
2023-01-11T03:17:29.929Z,34.5
2023-01-11T03:22:30.348Z,34.4
2023-01-11T03:27:30.749Z,34.4
2023-01-11T03:32:31.169Z,34.4
2023-01-11T03:37:33.012Z,34.4
2023-01-11T03:42:33.474Z,34.3
2023-01-11T03:47:33.925Z,34.2
2023-01-11T03:52:34.408Z,34.2
2023-01-11T03:57:34.600Z,34.2
2023-01-11T04:02:34.807Z,34.2
2023-01-11T04:07:35.013Z,34.1
2023-01-11T04:12:36.927Z,34.1
2023-01-11T04:17:37.341Z,34.1
2023-01-11T04:22:39.433Z,34.1
2023-01-11T04:27:41.491Z,34
2023-01-11T04:32:41.931Z,34
2023-01-11T04:37:42.385Z,33.9
2023-01-11T04:42:44.452Z,33.9
2023-01-11T04:47:44.874Z,33.9
2023-01-11T04:52:45.309Z,33.9
2023-01-11T04:57:45.731Z,33.8
2023-01-11T05:02:47.582Z,33.8
2023-01-11T05:07:48.034Z,33.7
2023-01-11T05:12:50.118Z,33.7
2023-01-11T05:17:52.188Z,33.7
2023-01-11T05:22:54.255Z,33.7
2023-01-11T05:27:56.347Z,33.6
2023-01-11T05:32:58.194Z,33.6
2023-01-11T05:38:00.302Z,33.6
2023-01-11T05:43:02.335Z,33.6
2023-01-11T05:48:04.405Z,33.5
2023-01-11T05:53:06.462Z,33.5
2023-01-11T05:58:08.489Z,33.5
2023-01-11T06:03:10.577Z,33.4
2023-01-11T06:08:12.697Z,33.4
2023-01-11T06:13:15.220Z,33.4
2023-01-11T06:18:15.752Z,33.4
2023-01-11T06:23:17.878Z,33.3
2023-01-11T06:28:19.975Z,33.3
2023-01-11T06:33:22.189Z,33.2
2023-01-11T06:38:24.322Z,33.2
2023-01-11T06:43:26.445Z,33.2
2023-01-11T06:48:28.264Z,33.2
2023-01-11T06:53:30.364Z,33.2
2023-01-11T06:58:32.483Z,33.1
2023-01-11T07:03:34.620Z,33.1
2023-01-11T07:08:36.738Z,33.1
2023-01-11T07:13:38.826Z,33.1
2023-01-11T07:18:40.917Z,33
2023-01-11T07:23:43.019Z,33
2023-01-11T07:28:45.082Z,33
2023-01-11T07:33:47.238Z,32.9
2023-01-11T07:38:49.315Z,32.9
2023-01-11T07:43:51.370Z,32.9
2023-01-11T07:48:53.502Z,32.9
2023-01-11T07:53:55.698Z,32.8
2023-01-11T07:58:57.763Z,32.8
2023-01-11T08:03:59.802Z,32.8
2023-01-11T08:09:01.871Z,32.7
2023-01-11T08:14:03.968Z,32.7
2023-01-11T08:19:06.031Z,32.7
2023-01-11T08:24:08.115Z,32.7
2023-01-11T08:29:10.158Z,32.7
2023-01-11T08:34:12.185Z,32.6
2023-01-11T08:39:14.246Z,32.6
2023-01-11T08:44:19.501Z,32.6
2023-01-11T08:49:31.044Z,32.6
2023-01-11T08:54:33.106Z,32.6
2023-01-11T08:59:35.135Z,32.5
2023-01-11T09:04:37.197Z,32.5
2023-01-11T09:09:39.057Z,32.5
2023-01-11T09:14:40.864Z,32.4
2023-01-11T09:19:42.991Z,32.4
2023-01-11T09:24:45.093Z,32.4
2023-01-11T09:29:46.921Z,32.4
2023-01-11T09:34:48.964Z,32.4
2023-01-11T09:39:51.069Z,32.3
2023-01-11T09:44:53.172Z,32.3
2023-01-11T09:49:55.236Z,32.2
2023-01-11T09:54:57.306Z,32.2
2023-01-11T09:59:59.351Z,32.2
2023-01-11T10:05:01.428Z,32.2
2023-01-11T10:19:25.061Z,32.2
2023-01-11T10:24:33.322Z,32.1
2023-01-11T10:29:35.385Z,32.1
2023-01-11T10:34:37.414Z,32.1
2023-01-11T10:39:39.422Z,32.1
2023-01-11T10:44:41.455Z,32.1
2023-01-11T10:49:43.467Z,32.1
2023-01-11T10:54:46.421Z,32
2023-01-11T10:59:49.360Z,32
2023-01-11T11:04:51.403Z,32
2023-01-11T11:09:53.214Z,31.9
2023-01-11T11:14:55.098Z,31.1
2023-01-11T11:19:57.075Z,31
2023-01-11T11:24:58.818Z,30.9
2023-01-11T11:30:00.644Z,30.9
2023-01-11T11:35:02.432Z,30.7
2023-01-11T11:40:04.441Z,30.6
2023-01-11T11:45:06.455Z,30.6
2023-01-11T11:50:08.503Z,30.6
2023-01-11T11:55:10.477Z,30.6
2023-01-11T12:00:12.490Z,30.6
2023-01-11T12:05:14.285Z,30.6
2023-01-11T12:10:16.405Z,30.5
2023-01-11T12:15:18.465Z,30.5
2023-01-11T12:20:20.214Z,30.5
2023-01-11T12:25:22.225Z,30.5
2023-01-11T12:30:24.216Z,30.5
2023-01-11T12:35:26.189Z,30.4
2023-01-11T12:40:28.142Z,30.4
2023-01-11T12:45:29.895Z,30.4
2023-01-11T12:50:31.867Z,30.4
2023-01-11T12:55:33.851Z,30.4
2023-01-11T13:00:35.599Z,30.4
2023-01-11T13:05:37.572Z,30.4
2023-01-11T13:10:39.524Z,30.4
2023-01-11T13:15:41.538Z,30.3
2023-01-11T13:20:59.153Z,30.3
2023-01-11T13:26:01.931Z,30.3
2023-01-11T13:31:03.816Z,30.3
2023-01-11T13:36:12.232Z,30.3
2023-01-11T13:41:20.364Z,30.3
2023-01-11T13:46:22.128Z,30.3
2023-01-11T13:51:24.087Z,30.3
2023-01-11T13:56:26.079Z,30.2
2023-01-11T14:01:28.121Z,30.2
2023-01-11T14:06:29.876Z,30.2
2023-01-11T14:11:31.851Z,30.2
2023-01-11T14:16:33.840Z,30.2
2023-01-11T14:21:35.812Z,30.1
2023-01-11T14:26:37.801Z,30.1
2023-01-11T14:31:39.838Z,30.1
2023-01-11T14:36:43.945Z,30.1
2023-01-11T14:41:46.002Z,30.1
2023-01-11T14:46:48.055Z,30.1
2023-01-11T14:51:49.810Z,30.1
2023-01-11T14:56:51.761Z,30.1
2023-01-11T15:01:53.850Z,30.1
2023-01-11T15:06:55.842Z,30
2023-01-11T15:11:57.787Z,30
2023-01-11T15:16:59.773Z,30
2023-01-11T15:22:01.749Z,30
2023-01-11T15:27:03.923Z,29.9
2023-01-11T15:32:05.765Z,29.9
2023-01-11T15:37:07.739Z,29.9
2023-01-11T15:42:09.439Z,29.9
2023-01-11T15:47:11.212Z,29.9
2023-01-11T15:52:13.171Z,29.9
2023-01-11T15:57:15.117Z,29.9
2023-01-11T16:02:17.100Z,29.9
2023-01-11T16:07:18.862Z,29.9
2023-01-11T16:12:20.834Z,29.8
2023-01-11T16:17:22.819Z,30.8
2023-01-11T16:22:24.827Z,34
2023-01-11T16:27:25.058Z,36.4
2023-01-11T16:32:25.611Z,39
2023-01-11T16:37:26.213Z,40.9
2023-01-11T16:42:26.823Z,41.2
2023-01-11T16:47:27.435Z,40.9
2023-01-11T16:52:28.102Z,39.9
2023-01-11T16:57:28.716Z,41.2
2023-01-11T17:02:29.459Z,42.6
2023-01-11T17:07:30.156Z,42.9
2023-01-11T17:12:30.901Z,42.9
2023-01-11T17:17:31.636Z,43.3
2023-01-11T17:22:32.350Z,43.6
2023-01-11T17:27:33.053Z,43.6
2023-01-11T17:32:33.794Z,44.2
2023-01-11T17:37:34.505Z,43.5
2023-01-11T17:42:35.193Z,42.7
2023-01-11T17:47:35.894Z,43.9
2023-01-11T17:52:38.936Z,44.4
2023-01-11T17:57:39.783Z,44.7
2023-01-11T18:02:40.570Z,45.2
2023-01-11T18:07:41.407Z,45.3
2023-01-11T18:12:42.031Z,45.3
2023-01-11T18:17:42.807Z,45.3
2023-01-11T18:22:43.602Z,45.2
2023-01-11T18:27:44.190Z,45.2
2023-01-11T18:32:44.947Z,45.2
2023-01-11T18:37:45.730Z,45.2
2023-01-11T18:42:46.513Z,45.2
2023-01-11T18:47:47.320Z,45.1
2023-01-11T18:52:48.055Z,45.1
2023-01-11T18:57:48.814Z,45.1
2023-01-11T19:07:50.366Z,45
2023-01-11T19:12:51.163Z,45
2023-01-11T19:17:51.935Z,44.9
2023-01-11T19:22:52.706Z,44.9
2023-01-11T19:27:54.885Z,44.9
2023-01-11T19:32:55.594Z,44.9
2023-01-11T19:37:56.399Z,44.8
2023-01-11T19:42:57.214Z,44.7
2023-01-11T19:47:57.942Z,44.7
2023-01-11T19:52:58.758Z,44.7
2023-01-11T19:57:59.599Z,44.7
2023-01-11T20:03:00.372Z,44.7
2023-01-11T20:08:01.248Z,44.6
2023-01-11T20:13:02.048Z,44.6
2023-01-11T20:18:02.781Z,44.5
2023-01-11T20:23:03.529Z,44.5
2023-01-11T20:28:04.268Z,44.4
2023-01-11T20:33:05.001Z,44.4
2023-01-11T20:38:05.497Z,44.4
2023-01-11T20:43:06.263Z,44.3
2023-01-11T20:48:06.961Z,44.2
2023-01-11T20:53:07.692Z,44.2
2023-01-11T20:58:08.420Z,44.2
2023-01-11T21:03:09.227Z,44.1
2023-01-11T21:08:09.935Z,44.1
2023-01-11T21:13:10.634Z,44.1
2023-01-11T21:18:11.380Z,44
2023-01-11T21:23:12.095Z,43.9
2023-01-11T21:28:12.792Z,43.9
2023-01-11T21:33:13.491Z,43.9
2023-01-11T21:38:14.217Z,43.8
2023-01-11T21:43:14.961Z,43.8
2023-01-11T21:48:15.652Z,43.7
2023-01-11T21:53:16.404Z,43.7
2023-01-11T21:58:17.078Z,43.6
2023-01-11T22:03:17.801Z,43.6
2023-01-11T22:08:18.558Z,43.5
2023-01-11T22:13:19.295Z,43.4
2023-01-11T22:18:19.977Z,43.4
2023-01-11T22:23:20.688Z,43.3
2023-01-11T22:28:21.401Z,43.3
2023-01-11T22:33:21.861Z,43.3
2023-01-11T22:38:22.545Z,43.2
2023-01-11T22:43:23.238Z,43.2
2023-01-11T22:48:23.690Z,43.1
2023-01-11T22:53:24.358Z,43.1
2023-01-11T22:58:24.803Z,43
2023-01-11T23:03:25.490Z,43
2023-01-11T23:08:25.971Z,42.9
2023-01-11T23:13:26.651Z,42.9
2023-01-11T23:18:27.305Z,42.8
2023-01-11T23:23:28.031Z,42.7
2023-01-11T23:28:28.444Z,42.7
2023-01-11T23:33:29.095Z,42.7
2023-01-11T23:38:29.771Z,42.6
2023-01-11T23:43:30.252Z,42.6
2023-01-11T23:48:30.663Z,42.5
2023-01-11T23:53:31.119Z,42.5
2023-01-11T23:58:31.800Z,42.4
